createdAt,value
2022-10-09T00:01:46.443Z,100.00
2022-10-09T00:04:15.214Z,100.00
2022-10-09T00:06:45.399Z,100.00
2022-10-09T00:09:14.519Z,100.00
2022-10-09T00:11:42.876Z,100.00
2022-10-09T00:14:11.656Z,100.00
2022-10-09T00:16:40.141Z,100.00
2022-10-09T00:19:08.914Z,100.00
2022-10-09T00:21:37.796Z,100.00
2022-10-09T00:24:07.969Z,100.00
2022-10-09T00:26:36.672Z,100.00
2022-10-09T00:29:05.992Z,100.00
2022-10-09T00:31:34.629Z,100.00
2022-10-09T00:34:03.384Z,100.00
2022-10-09T00:36:32.147Z,100.00
2022-10-09T00:39:00.882Z,100.00
2022-10-09T00:41:34.290Z,100.00
2022-10-09T00:44:04.021Z,100.00
2022-10-09T00:46:46.443Z,100.00
2022-10-09T00:49:19.037Z,100.00
2022-10-09T00:51:49.413Z,100.00
2022-10-09T00:54:20.337Z,100.00
2022-10-09T00:56:50.884Z,100.00
2022-10-09T00:59:19.963Z,100.00
2022-10-09T01:01:49.275Z,100.00
2022-10-09T01:04:18.411Z,98.68
2022-10-09T01:06:57.944Z,98.95
2022-10-09T01:09:34.049Z,99.91
2022-10-09T01:12:08.953Z,99.74
2022-10-09T01:14:40.982Z,99.06
2022-10-09T01:17:14.150Z,99.13
2022-10-09T01:20:04.495Z,98.99
2022-10-09T01:22:40.983Z,100.00
2022-10-09T01:25:10.640Z,99.52
2022-10-09T01:27:42.181Z,98.71
2022-10-09T01:30:13.369Z,99.54
2022-10-09T01:32:46.157Z,98.91
2022-10-09T01:35:16.308Z,99.18
2022-10-09T01:37:46.263Z,98.49
2022-10-09T01:40:17.264Z,98.87
2022-10-09T01:42:48.385Z,98.64
2022-10-09T01:45:17.541Z,99.58
2022-10-09T01:47:46.706Z,99.17
2022-10-09T01:50:19.714Z,98.58
2022-10-09T01:52:51.739Z,100.00
2022-10-09T01:55:34.714Z,100.00
2022-10-09T01:58:08.693Z,100.00
2022-10-09T02:00:39.354Z,100.00
2022-10-09T02:03:10.624Z,100.00
2022-10-09T02:05:41.024Z,100.00
2022-10-09T02:08:10.496Z,100.00
2022-10-09T02:10:39.068Z,100.00
2022-10-09T02:13:09.426Z,100.00
2022-10-09T02:15:42.879Z,100.00
2022-10-09T02:18:14.647Z,100.00
2022-10-09T02:20:47.326Z,100.00
2022-10-09T02:23:19.102Z,100.00
2022-10-09T02:25:47.807Z,100.00
2022-10-09T02:28:17.654Z,100.00
2022-10-09T02:30:49.212Z,100.00
2022-10-09T02:33:18.022Z,100.00
2022-10-09T02:35:47.657Z,99.80
2022-10-09T02:38:16.051Z,99.94
2022-10-09T02:40:47.409Z,100.00
2022-10-09T02:43:17.898Z,99.64
2022-10-09T02:45:46.446Z,100.00
2022-10-09T02:48:14.858Z,100.00
2022-10-09T02:50:43.694Z,100.00
2022-10-09T02:53:12.363Z,99.81
2022-10-09T02:55:40.614Z,100.00
2022-10-09T02:58:12.165Z,100.00
2022-10-09T03:00:42.071Z,98.79
2022-10-09T03:03:10.620Z,98.61
2022-10-09T03:05:39.066Z,99.80
2022-10-09T03:08:08.007Z,100.00
2022-10-09T03:10:38.757Z,100.00
2022-10-09T03:13:07.479Z,100.00
2022-10-09T03:15:36.311Z,99.70
2022-10-09T03:18:07.095Z,100.00
2022-10-09T03:20:35.508Z,100.00
2022-10-09T03:23:03.968Z,98.79
2022-10-09T03:25:32.700Z,98.53
2022-10-09T03:28:01.278Z,99.42
2022-10-09T03:30:30.375Z,100.00
2022-10-09T03:32:59.137Z,99.73
2022-10-09T03:35:29.299Z,99.58
2022-10-09T03:37:57.810Z,100.00
2022-10-09T03:40:26.432Z,100.00
2022-10-09T03:42:54.791Z,100.00
2022-10-09T03:45:23.771Z,100.00
2022-10-09T03:47:52.746Z,100.00
2022-10-09T03:50:21.193Z,100.00
2022-10-09T03:52:51.367Z,100.00
2022-10-09T03:55:20.209Z,100.00
2022-10-09T03:57:48.904Z,100.00
2022-10-09T04:00:17.858Z,100.00
2022-10-09T04:02:46.566Z,100.00
2022-10-09T04:05:16.099Z,100.00
2022-10-09T04:07:44.829Z,100.00
2022-10-09T04:10:15.201Z,100.00
2022-10-09T04:12:43.946Z,100.00
2022-10-09T04:15:12.908Z,100.00
2022-10-09T04:17:41.706Z,100.00
2022-10-09T04:20:11.129Z,100.00
2022-10-09T04:22:39.820Z,100.00
2022-10-09T04:25:09.467Z,100.00
2022-10-09T04:27:39.605Z,100.00
2022-10-09T04:30:09.773Z,100.00
2022-10-09T04:32:38.466Z,100.00
2022-10-09T04:35:08.250Z,100.00
2022-10-09T04:37:36.928Z,100.00
2022-10-09T04:40:06.281Z,100.00
2022-10-09T04:42:35.209Z,100.00
2022-10-09T04:45:05.597Z,100.00
2022-10-09T04:47:35.248Z,100.00
2022-10-09T04:50:04.685Z,100.00
2022-10-09T04:52:33.079Z,100.00
2022-10-09T04:55:01.953Z,100.00
2022-10-09T04:57:30.571Z,100.00
2022-10-09T04:59:59.552Z,100.00
2022-10-09T05:02:30.274Z,100.00
2022-10-09T05:04:59.310Z,100.00
2022-10-09T05:07:28.341Z,100.00
2022-10-09T05:09:57.587Z,100.00
2022-10-09T05:12:29.070Z,100.00
2022-10-09T05:14:58.760Z,100.00
2022-10-09T05:17:34.809Z,100.00
2022-10-09T05:20:04.208Z,100.00
2022-10-09T05:22:32.973Z,100.00
2022-10-09T05:25:01.715Z,100.00
2022-10-09T05:27:30.204Z,100.00
2022-10-09T05:29:59.031Z,100.00
2022-10-09T05:32:27.436Z,100.00
2022-10-09T05:34:57.585Z,100.00
2022-10-09T05:37:26.423Z,100.00
2022-10-09T05:39:55.142Z,100.00
2022-10-09T05:42:23.894Z,100.00
2022-10-09T05:44:52.365Z,100.00
2022-10-09T05:47:20.521Z,100.00
2022-10-09T05:49:48.956Z,100.00
2022-10-09T05:52:19.617Z,100.00
2022-10-09T05:54:48.256Z,100.00
2022-10-09T05:57:16.417Z,100.00
2022-10-09T05:59:45.014Z,100.00
2022-10-09T06:02:14.739Z,100.00
2022-10-09T06:04:44.326Z,100.00
2022-10-09T06:07:12.858Z,100.00
2022-10-09T06:09:42.736Z,100.00
2022-10-09T06:12:11.643Z,100.00
2022-10-09T06:14:40.148Z,100.00
2022-10-09T06:17:08.272Z,100.00
2022-10-09T06:19:36.874Z,100.00
2022-10-09T06:22:05.705Z,100.00
2022-10-09T06:24:34.212Z,100.00
2022-10-09T06:27:06.036Z,100.00
2022-10-09T06:29:34.795Z,100.00
2022-10-09T06:32:03.832Z,100.00
2022-10-09T06:34:32.662Z,100.00
2022-10-09T06:37:00.983Z,100.00
2022-10-09T06:39:29.999Z,100.00
2022-10-09T06:41:58.668Z,100.00
2022-10-09T06:44:28.556Z,100.00
2022-10-09T06:46:56.970Z,100.00
2022-10-09T06:49:26.001Z,100.00
2022-10-09T06:51:55.000Z,100.00
2022-10-09T06:54:23.540Z,99.12
2022-10-09T06:56:52.502Z,98.45
2022-10-09T06:59:20.841Z,98.29
2022-10-09T07:01:51.158Z,97.32
2022-10-09T07:04:20.305Z,97.12
2022-10-09T07:06:50.749Z,98.32
2022-10-09T07:09:20.457Z,96.37
2022-10-09T07:11:50.494Z,96.14
2022-10-09T07:14:20.223Z,93.95
2022-10-09T07:16:51.014Z,94.30
2022-10-09T07:19:19.884Z,93.74
2022-10-09T07:21:51.069Z,92.85
2022-10-09T07:24:21.589Z,92.15
2022-10-09T07:26:51.191Z,91.97
2022-10-09T07:29:21.238Z,88.29
2022-10-09T07:31:53.316Z,88.28
2022-10-09T07:34:22.029Z,87.07
2022-10-09T07:36:50.712Z,87.35
2022-10-09T07:39:20.302Z,85.41
2022-10-09T07:41:51.724Z,85.61
2022-10-09T07:44:20.351Z,83.76
2022-10-09T07:46:53.070Z,85.46
2022-10-09T07:49:22.306Z,83.89
2022-10-09T07:51:50.944Z,83.50
2022-10-09T07:54:19.452Z,82.51
2022-10-09T07:56:48.348Z,82.33
2022-10-09T07:59:17.959Z,81.51
2022-10-09T08:01:48.998Z,78.28
2022-10-09T08:04:19.447Z,79.37
2022-10-09T08:06:50.117Z,79.42
2022-10-09T08:09:21.559Z,79.36
2022-10-09T08:11:50.446Z,78.81
2022-10-09T08:14:19.573Z,78.21
2022-10-09T08:16:49.168Z,76.93
2022-10-09T08:19:19.171Z,75.26
2022-10-09T08:21:48.259Z,75.01
2022-10-09T08:24:16.790Z,75.69
2022-10-09T08:26:45.696Z,74.01
2022-10-09T08:29:16.686Z,73.71
2022-10-09T08:31:45.705Z,74.21
2022-10-09T08:34:14.372Z,73.30
2022-10-09T08:36:45.168Z,71.66
2022-10-09T08:39:14.008Z,67.65
2022-10-09T08:41:48.406Z,66.41
2022-10-09T08:44:19.996Z,64.82
2022-10-09T08:47:00.942Z,57.64
2022-10-09T08:49:34.525Z,51.26
2022-10-09T08:52:16.744Z,49.59
2022-10-09T08:54:45.073Z,48.65
2022-10-09T08:57:15.878Z,51.11
2022-10-09T08:59:44.668Z,51.32
2022-10-09T09:02:28.962Z,51.72
2022-10-09T09:05:05.451Z,52.81
2022-10-09T09:07:41.731Z,51.78
2022-10-09T09:10:15.108Z,47.95
2022-10-09T09:12:50.103Z,48.15
2022-10-09T09:15:37.009Z,47.24
2022-10-09T09:18:21.398Z,48.32
2022-10-09T09:20:54.674Z,50.57
2022-10-09T09:27:31.824Z,50.06
2022-10-09T09:30:04.298Z,48.55
2022-10-09T09:32:33.715Z,44.70
2022-10-09T09:35:10.795Z,43.35
2022-10-09T09:37:39.863Z,47.12
2022-10-09T09:40:36.706Z,47.10
2022-10-09T09:43:08.509Z,46.99
2022-10-09T09:45:36.788Z,49.35
2022-10-09T09:48:08.504Z,50.46
2022-10-09T09:50:53.103Z,50.40
2022-10-09T09:53:33.875Z,52.18
2022-10-09T09:56:02.360Z,53.25
2022-10-09T09:58:35.624Z,50.70
2022-10-09T10:01:06.600Z,49.77
2022-10-09T10:03:36.058Z,50.43
2022-10-09T10:06:04.754Z,51.30
2022-10-09T10:08:34.837Z,49.05
2022-10-09T10:11:07.216Z,46.76
2022-10-09T10:13:39.926Z,45.01
2022-10-09T10:16:10.227Z,43.76
2022-10-09T10:18:41.199Z,42.08
2022-10-09T10:21:13.674Z,45.18
2022-10-09T10:23:45.831Z,42.40
2022-10-09T10:26:23.256Z,41.68
2022-10-09T10:28:56.541Z,44.60
2022-10-09T10:31:36.636Z,42.02
2022-10-09T10:34:06.490Z,40.09
2022-10-09T10:36:35.628Z,39.01
2022-10-09T10:39:09.804Z,37.25
2022-10-09T10:41:42.946Z,34.54
2022-10-09T10:44:20.866Z,32.72
2022-10-09T10:46:54.723Z,30.38
2022-10-09T10:49:33.819Z,32.26
2022-10-09T10:52:18.193Z,30.47
2022-10-09T10:54:57.870Z,34.45
2022-10-09T10:57:32.390Z,33.58
2022-10-09T11:00:06.558Z,31.86
2022-10-09T11:02:59.676Z,32.11
2022-10-09T11:05:47.065Z,32.04
2022-10-09T11:08:30.405Z,31.46
2022-10-09T11:11:06.454Z,31.91
2022-10-09T11:13:36.250Z,35.24
2022-10-09T11:16:21.803Z,36.32
2022-10-09T11:19:04.234Z,37.74
2022-10-09T11:21:42.943Z,38.14
2022-10-09T11:24:24.128Z,42.23
2022-10-09T11:27:03.138Z,42.10
2022-10-09T11:29:36.350Z,44.92
2022-10-09T11:32:13.896Z,42.98
2022-10-09T11:34:46.353Z,43.28
2022-10-09T11:37:18.499Z,43.08
2022-10-09T11:39:47.344Z,44.01
2022-10-09T11:42:20.010Z,42.55
2022-10-09T11:45:03.247Z,43.82
2022-10-09T11:47:39.697Z,42.59
2022-10-09T11:50:24.803Z,41.55
2022-10-09T11:52:59.069Z,41.32
2022-10-09T11:55:29.226Z,40.38
2022-10-09T11:58:09.422Z,40.30
2022-10-09T12:00:38.625Z,39.36
2022-10-09T12:03:09.413Z,39.95
2022-10-09T12:05:42.980Z,39.70
2022-10-09T12:08:18.309Z,39.32
2022-10-09T12:10:52.620Z,39.56
2022-10-09T12:13:42.312Z,40.04
2022-10-09T12:16:12.715Z,40.47
2022-10-09T12:18:46.712Z,40.96
2022-10-09T12:21:23.640Z,42.06
2022-10-09T12:23:52.812Z,41.99
2022-10-09T12:26:23.116Z,39.39
2022-10-09T12:28:53.458Z,39.99
2022-10-09T12:31:25.845Z,40.25
2022-10-09T12:33:58.491Z,38.88
2022-10-09T12:36:28.565Z,37.75
2022-10-09T12:38:57.151Z,38.37
2022-10-09T12:41:27.750Z,37.98
2022-10-09T12:43:57.363Z,38.63
2022-10-09T12:46:32.050Z,39.64
2022-10-09T12:49:09.879Z,38.46
2022-10-09T12:51:38.351Z,39.90
2022-10-09T12:54:09.876Z,43.23
2022-10-09T12:56:39.807Z,43.88
2022-10-09T12:59:09.193Z,45.01
2022-10-09T13:01:37.728Z,45.70
2022-10-09T13:04:09.743Z,45.87
2022-10-09T13:06:44.208Z,45.79
2022-10-09T13:09:24.781Z,45.90
2022-10-09T13:11:55.926Z,45.39
2022-10-09T13:14:34.606Z,45.88
2022-10-09T13:17:03.820Z,47.06
2022-10-09T13:19:37.451Z,46.73
2022-10-09T13:22:21.242Z,45.34
2022-10-09T13:24:53.129Z,46.04
2022-10-09T13:27:21.612Z,44.89
2022-10-09T13:29:50.121Z,43.67
2022-10-09T13:32:19.178Z,41.82
2022-10-09T13:34:48.943Z,41.75
2022-10-09T13:37:20.321Z,41.38
2022-10-09T13:39:48.994Z,42.68
2022-10-09T13:42:17.966Z,43.99
2022-10-09T13:44:46.562Z,44.91
2022-10-09T13:47:15.359Z,44.67
2022-10-09T13:49:44.241Z,44.24
2022-10-09T13:52:13.935Z,44.43
2022-10-09T13:54:42.512Z,44.05
2022-10-09T13:57:10.963Z,44.29
2022-10-09T13:59:39.637Z,44.05
2022-10-09T14:02:08.204Z,42.52
2022-10-09T14:04:37.141Z,40.74
2022-10-09T14:07:05.820Z,38.85
2022-10-09T14:09:35.601Z,37.55
2022-10-09T14:12:03.924Z,37.08
2022-10-09T14:14:32.164Z,35.03
2022-10-09T14:17:00.767Z,34.27
2022-10-09T14:19:28.951Z,34.06
2022-10-09T14:21:57.480Z,33.90
2022-10-09T14:24:26.653Z,33.70
2022-10-09T14:26:56.708Z,32.74
2022-10-09T14:29:25.414Z,32.51
2022-10-09T14:31:53.948Z,32.02
2022-10-09T14:34:22.164Z,32.11
2022-10-09T14:36:50.780Z,31.54
2022-10-09T14:39:19.378Z,31.41
2022-10-09T14:41:48.520Z,32.04
2022-10-09T14:44:18.426Z,31.66
2022-10-09T14:46:47.052Z,32.35
2022-10-09T14:49:16.239Z,33.42
2022-10-09T14:51:44.664Z,32.35
2022-10-09T14:54:14.907Z,31.60
2022-10-09T14:56:43.397Z,32.14
2022-10-09T14:59:11.927Z,32.83
2022-10-09T15:01:42.558Z,34.06
2022-10-09T15:04:11.536Z,35.02
2022-10-09T15:06:41.330Z,37.12
2022-10-09T15:09:09.820Z,38.47
2022-10-09T15:11:38.399Z,40.17
2022-10-09T15:14:07.894Z,41.88
2022-10-09T15:16:36.466Z,43.39
2022-10-09T15:19:07.085Z,45.19
2022-10-09T15:21:37.059Z,45.71
2022-10-09T15:24:06.666Z,46.64
2022-10-09T15:26:37.111Z,48.53
2022-10-09T15:29:08.251Z,51.50
2022-10-09T15:31:39.788Z,52.26
2022-10-09T15:34:11.200Z,52.97
2022-10-09T15:36:43.286Z,54.16
2022-10-09T15:39:11.940Z,55.37
2022-10-09T15:41:42.754Z,55.96
2022-10-09T15:44:17.708Z,56.36
2022-10-09T15:47:50.413Z,57.48
2022-10-09T15:50:21.698Z,59.41
2022-10-09T15:52:50.671Z,60.29
2022-10-09T15:55:19.471Z,60.27
2022-10-09T15:57:47.903Z,61.95
2022-10-09T16:00:17.049Z,64.19
2022-10-09T16:02:46.730Z,64.17
2022-10-09T16:05:16.155Z,67.26
2022-10-09T16:07:46.444Z,66.37
2022-10-09T16:10:15.075Z,69.80
2022-10-09T16:12:45.726Z,72.22
2022-10-09T16:15:14.519Z,72.04
2022-10-09T16:17:43.112Z,72.67
2022-10-09T16:20:11.818Z,73.74
2022-10-09T16:22:40.609Z,75.47
2022-10-09T16:25:11.619Z,78.86
2022-10-09T16:27:40.288Z,80.81
2022-10-09T16:30:12.238Z,82.15
2022-10-09T16:32:40.855Z,83.40
2022-10-09T16:35:10.916Z,85.00
2022-10-09T16:37:40.074Z,85.07
2022-10-09T16:40:11.663Z,85.23
2022-10-09T16:42:40.497Z,84.88
2022-10-09T16:45:10.948Z,85.78
2022-10-09T16:47:43.009Z,86.13
2022-10-09T16:50:12.919Z,86.70
2022-10-09T16:52:42.562Z,87.51
2022-10-09T16:55:12.645Z,87.20
2022-10-09T16:57:41.315Z,87.03
2022-10-09T17:00:12.448Z,87.96
2022-10-09T17:02:41.057Z,87.66
2022-10-09T17:05:11.299Z,88.28
2022-10-09T17:07:41.450Z,87.91
2022-10-09T17:10:12.483Z,87.90
2022-10-09T17:12:48.477Z,87.58
2022-10-09T17:15:17.412Z,87.77
2022-10-09T17:17:46.834Z,88.78
2022-10-09T17:20:16.022Z,89.04
2022-10-09T17:22:45.049Z,89.79
2022-10-09T17:25:15.769Z,90.78
2022-10-09T17:27:45.008Z,91.49
2022-10-09T17:30:14.450Z,92.33
2022-10-09T17:32:43.544Z,93.69
2022-10-09T17:35:12.467Z,95.18
2022-10-09T17:37:42.757Z,95.66
2022-10-09T17:40:11.743Z,98.50
2022-10-09T17:42:41.874Z,97.69
2022-10-09T17:45:12.258Z,99.06
2022-10-09T17:47:43.757Z,99.37
2022-10-09T17:50:13.594Z,99.90
2022-10-09T17:52:43.119Z,100.00
2022-10-09T17:55:11.523Z,100.00
2022-10-09T17:57:42.691Z,100.00
2022-10-09T18:00:13.543Z,99.83
2022-10-09T18:02:43.552Z,100.00
2022-10-09T18:05:13.039Z,100.00
2022-10-09T18:07:42.179Z,100.00
2022-10-09T18:10:11.226Z,100.00
2022-10-09T18:12:39.933Z,100.00
2022-10-09T18:15:11.332Z,100.00
2022-10-09T18:17:42.948Z,100.00
2022-10-09T18:20:12.138Z,100.00
2022-10-09T18:22:46.442Z,100.00
2022-10-09T18:25:16.045Z,100.00
2022-10-09T18:27:45.766Z,100.00
2022-10-09T18:30:17.473Z,100.00
2022-10-09T18:32:46.668Z,100.00
2022-10-09T18:35:15.824Z,100.00
2022-10-09T18:37:46.221Z,100.00
2022-10-09T18:40:15.961Z,100.00
2022-10-09T18:42:45.298Z,100.00
2022-10-09T18:45:17.835Z,100.00
2022-10-09T18:47:47.660Z,100.00
2022-10-09T18:50:19.775Z,100.00
2022-10-09T18:52:54.101Z,100.00
2022-10-09T18:55:25.196Z,100.00
2022-10-09T18:57:56.207Z,100.00
2022-10-09T19:00:27.329Z,100.00
2022-10-09T19:02:56.477Z,100.00
2022-10-09T19:05:28.804Z,100.00
2022-10-09T19:07:58.356Z,100.00
2022-10-09T19:10:27.122Z,100.00
2022-10-09T19:12:59.017Z,100.00
2022-10-09T19:15:42.247Z,100.00
2022-10-09T19:18:21.110Z,100.00
2022-10-09T19:20:55.706Z,100.00
2022-10-09T19:23:33.142Z,100.00
2022-10-09T19:26:06.512Z,100.00
2022-10-09T19:28:51.634Z,100.00
2022-10-09T19:31:25.670Z,100.00
2022-10-09T19:33:56.733Z,100.00
2022-10-09T19:36:33.155Z,100.00
2022-10-09T19:39:10.668Z,100.00
2022-10-09T19:41:50.096Z,100.00
2022-10-09T19:44:24.924Z,100.00
2022-10-09T19:46:59.684Z,100.00
2022-10-09T19:49:32.869Z,100.00
2022-10-09T19:52:01.886Z,100.00
2022-10-09T19:54:30.460Z,100.00
2022-10-09T19:56:59.155Z,100.00
2022-10-09T19:59:29.099Z,100.00
2022-10-09T20:01:59.245Z,100.00
2022-10-09T20:04:28.438Z,100.00
2022-10-09T20:06:56.901Z,100.00
2022-10-09T20:09:25.616Z,100.00
2022-10-09T20:11:54.296Z,100.00
2022-10-09T20:14:22.957Z,100.00
2022-10-09T20:16:51.331Z,100.00
2022-10-09T20:19:21.279Z,100.00
2022-10-09T20:21:49.551Z,100.00
2022-10-09T20:24:18.571Z,100.00
2022-10-09T20:26:47.314Z,100.00
2022-10-09T20:29:16.473Z,100.00
2022-10-09T20:31:47.729Z,100.00
2022-10-09T20:34:17.253Z,100.00
2022-10-09T20:36:47.029Z,100.00
2022-10-09T20:39:16.331Z,100.00
2022-10-09T20:41:45.008Z,100.00
2022-10-09T20:44:13.696Z,100.00
2022-10-09T20:46:42.862Z,100.00
2022-10-09T20:49:13.561Z,100.00
2022-10-09T20:51:42.023Z,100.00
2022-10-09T20:54:18.032Z,100.00
2022-10-09T20:56:47.203Z,100.00
2022-10-09T20:59:16.205Z,100.00
2022-10-09T21:01:44.771Z,100.00
2022-10-09T21:04:14.778Z,100.00
2022-10-09T21:06:44.603Z,100.00
2022-10-09T21:09:15.206Z,100.00
2022-10-09T21:11:46.106Z,100.00
2022-10-09T21:14:16.005Z,100.00
2022-10-09T21:16:44.849Z,100.00
2022-10-09T21:19:14.227Z,100.00
2022-10-09T21:21:45.321Z,100.00
2022-10-09T21:24:17.718Z,100.00
2022-10-09T21:26:47.510Z,100.00
2022-10-09T21:29:16.288Z,100.00
2022-10-09T21:31:44.732Z,100.00
2022-10-09T21:34:13.230Z,100.00
2022-10-09T21:37:08.496Z,100.00
2022-10-09T21:39:33.355Z,100.00
2022-10-09T21:42:02.031Z,100.00
2022-10-09T21:44:30.538Z,100.00
2022-10-09T21:46:59.052Z,100.00
2022-10-09T21:49:28.959Z,100.00
2022-10-09T21:51:58.573Z,100.00
2022-10-09T21:54:27.414Z,100.00
2022-10-09T21:56:57.095Z,100.00
2022-10-09T21:59:25.504Z,100.00
2022-10-09T22:01:54.276Z,100.00
2022-10-09T22:04:23.338Z,100.00
2022-10-09T22:06:51.957Z,100.00
2022-10-09T22:09:20.561Z,100.00
2022-10-09T22:11:49.179Z,100.00
2022-10-09T22:14:18.937Z,100.00
2022-10-09T22:16:47.523Z,100.00
2022-10-09T22:19:16.180Z,100.00
2022-10-09T22:21:44.472Z,100.00
2022-10-09T22:24:13.094Z,100.00
2022-10-09T22:26:41.568Z,100.00
2022-10-09T22:29:10.377Z,100.00
2022-10-09T22:31:40.289Z,100.00
2022-10-09T22:34:08.641Z,100.00
2022-10-09T22:36:37.672Z,100.00
2022-10-09T22:39:07.780Z,100.00
2022-10-09T22:41:36.900Z,100.00
2022-10-09T22:44:06.869Z,100.00
2022-10-09T22:46:36.581Z,100.00
2022-10-09T22:49:06.795Z,100.00
2022-10-09T22:51:35.782Z,100.00
2022-10-09T22:54:04.370Z,100.00
2022-10-09T22:56:34.433Z,100.00
2022-10-09T22:59:03.037Z,100.00
2022-10-09T23:01:34.942Z,100.00
2022-10-09T23:04:07.455Z,100.00
2022-10-09T23:06:36.367Z,100.00
2022-10-09T23:09:06.364Z,100.00
2022-10-09T23:11:34.760Z,100.00
2022-10-09T23:14:03.898Z,100.00
2022-10-09T23:16:32.969Z,100.00
2022-10-09T23:19:06.404Z,100.00
2022-10-09T23:21:37.811Z,100.00
2022-10-09T23:24:06.752Z,100.00
2022-10-09T23:26:36.645Z,100.00
2022-10-09T23:29:07.350Z,100.00
2022-10-09T23:31:36.173Z,100.00
2022-10-09T23:34:05.054Z,100.00
2022-10-09T23:36:33.979Z,100.00
2022-10-09T23:39:06.637Z,100.00
2022-10-09T23:41:35.452Z,100.00
2022-10-09T23:44:04.042Z,100.00
2022-10-09T23:46:34.240Z,100.00
2022-10-09T23:49:02.782Z,100.00
2022-10-09T23:51:31.753Z,100.00
2022-10-09T23:54:00.310Z,100.00
2022-10-09T23:56:32.249Z,100.00
2022-10-09T23:59:01.949Z,100.00
